Time,TemperatureF,DewpointF,PressureIn,WindDirection,WindDirectionDegrees,WindSpeedMPH,WindSpeedGustMPH,Humidity,HourlyPrecipIn,Conditions,Clouds,dailyrainin,SoftwareType,DateUTC
2013-05-20 00:01:00,48.0,-48.4,30.23,SSE,157,4.0,13.0,1,0.00,,,0.00,Weather View 32 v70,2013-05-20 04:01:00,
2013-05-20 00:31:00,49.0,-47.8,30.21,ESE,112,4.0,13.0,1,0.00,,,0.00,Weather View 32 v70,2013-05-20 04:31:00,
2013-05-20 00:35:00,49.0,-47.8,30.21,ESE,112,4.0,13.0,1,0.00,,,0.00,Weather View 32 v70,2013-05-20 04:35:00,
2013-05-20 01:01:00,49.0,-47.8,30.19,SSE,157,5.0,13.0,1,0.00,,,0.00,Weather View 32 v70,2013-05-20 05:01:00,
2013-05-20 01:32:00,49.0,-47.8,30.19,SSE,157,6.0,13.0,1,0.00,,,0.00,Weather View 32 v70,2013-05-20 05:32:00,
2013-05-20 02:01:00,48.0,-48.4,30.18,SE,135,3.0,10.0,1,0.00,,,0.00,Weather View 32 v70,2013-05-20 06:01:00,
2013-05-20 02:32:00,48.0,-48.4,30.16,SSE,157,6.0,10.0,1,0.00,,,0.00,Weather View 32 v70,2013-05-20 06:32:00,
2013-05-20 03:02:00,49.0,-47.8,30.14,East,90,3.0,9.0,1,0.00,,,0.00,Weather View 32 v70,2013-05-20 07:02:00,
2013-05-20 03:32:00,49.0,-47.8,30.13,ESE,112,6.0,9.0,1,0.00,,,0.00,Weather View 32 v70,2013-05-20 07:32:00,
2013-05-20 03:37:00,49.0,-47.8,30.13,ESE,112,6.0,9.0,1,0.00,,,0.00,Weather View 32 v70,2013-05-20 07:37:00,
2013-05-20 04:01:00,49.0,-47.8,30.11,ESE,112,4.0,9.0,1,0.00,,,0.00,Weather View 32 v70,2013-05-20 08:01:00,
2013-05-20 04:30:00,49.0,-47.8,30.10,SE,135,7.0,11.0,1,0.00,,,0.00,Weather View 32 v70,2013-05-20 08:30:00,
2013-05-20 04:32:00,49.0,-47.8,30.10,SE,135,7.0,11.0,1,0.00,,,0.00,Weather View 32 v70,2013-05-20 08:32:00,
2013-05-20 05:01:00,49.0,-47.8,30.09,ESE,112,4.0,11.0,1,0.00,,,0.00,Weather View 32 v70,2013-05-20 09:01:00,
2013-05-20 05:30:00,50.0,-47.2,30.07,ESE,112,12.0,13.0,1,0.00,,,0.00,Weather View 32 v70,2013-05-20 09:30:00,
2013-05-20 05:32:00,50.0,-47.2,30.07,ESE,112,12.0,13.0,1,0.00,,,0.00,Weather View 32 v70,2013-05-20 09:32:00,
2013-05-20 06:01:00,50.0,-47.2,30.07,SE,135,2.0,13.0,1,0.00,,,0.00,Weather View 32 v70,2013-05-20 10:01:00,
2013-05-20 06:30:00,50.0,-47.2,30.05,ESE,112,7.0,12.0,1,0.00,,,0.00,Weather View 32 v70,2013-05-20 10:30:00,
2013-05-20 06:31:00,50.0,-47.2,30.05,ESE,112,7.0,12.0,1,0.00,,,0.00,Weather View 32 v70,2013-05-20 10:31:00,
2013-05-20 07:01:00,50.0,-47.2,30.05,ESE,112,6.0,14.0,1,0.00,,,0.00,Weather View 32 v70,2013-05-20 11:01:00,
2013-05-20 07:30:00,50.0,-47.2,30.05,SSE,157,6.0,15.0,1,0.00,,,0.00,Weather View 32 v70,2013-05-20 11:30:00,
2013-05-20 07:31:00,50.0,-47.2,30.05,SSE,157,6.0,15.0,1,0.00,,,0.00,Weather View 32 v70,2013-05-20 11:31:00,
2013-05-20 08:00:00,50.0,-47.2,30.03,ESE,112,10.0,15.0,1,0.00,,,0.00,Weather View 32 v70,2013-05-20 12:00:00,
2013-05-20 08:32:00,50.0,-47.2,30.01,ESE,112,9.0,16.0,1,0.00,,,0.00,Weather View 32 v70,2013-05-20 12:32:00,
2013-05-20 09:02:00,50.0,-47.2,30.01,South,180,7.0,16.0,1,0.00,,,0.00,Weather View 32 v70,2013-05-20 13:02:00,
2013-05-20 09:31:00,50.0,-47.2,30.01,SE,135,10.0,13.0,1,0.00,,,0.00,Weather View 32 v70,2013-05-20 13:31:00,
2013-05-20 10:01:00,50.0,-47.2,29.99,East,90,4.0,12.0,1,0.00,,,0.00,Weather View 32 v70,2013-05-20 14:01:00,
2013-05-20 10:32:00,50.0,-47.2,29.98,ESE,112,7.0,12.0,1,0.00,,,0.00,Weather View 32 v70,2013-05-20 14:32:00,
2013-05-20 11:02:00,51.0,-46.6,29.98,ESE,112,4.0,12.0,1,0.00,,,0.00,Weather View 32 v70,2013-05-20 15:02:00,
2013-05-20 11:32:00,51.0,-46.6,29.96,ESE,112,4.0,12.0,1,0.00,,,0.00,Weather View 32 v70,2013-05-20 15:32:00,
2013-05-20 12:02:00,52.0,-46.0,29.95,ESE,112,6.0,8.0,1,0.00,,,0.00,Weather View 32 v70,2013-05-20 16:02:00,
2013-05-20 12:32:00,53.0,-45.3,29.93,East,90,5.0,8.0,1,0.00,,,0.00,Weather View 32 v70,2013-05-20 16:32:00,
2013-05-20 13:02:00,54.0,-44.7,29.92,SE,135,4.0,8.0,1,0.00,,,0.00,Weather View 32 v70,2013-05-20 17:02:00,
2013-05-20 13:31:00,54.0,-11.9,29.91,ESE,112,3.0,7.0,6,0.00,,,0.00,Weather View 32 v70,2013-05-20 17:31:00,
2013-05-20 14:02:00,55.0,13.4,29.90,East,90,2.0,8.0,19,0.00,,,0.00,Weather View 32 v70,2013-05-20 18:02:00,
2013-05-20 14:07:00,55.0,13.4,29.90,East,90,2.0,8.0,19,0.00,,,0.00,Weather View 32 v70,2013-05-20 18:07:00,
2013-05-20 14:31:00,57.0,28.1,29.89,ESE,112,7.0,10.0,33,0.00,,,0.00,Weather View 32 v70,2013-05-20 18:31:00,
2013-05-20 15:00:00,57.0,30.9,29.88,East,90,6.0,10.0,37,0.00,,,0.00,Weather View 32 v70,2013-05-20 19:00:00,
2013-05-20 15:03:00,57.0,30.9,29.88,East,90,6.0,10.0,37,0.00,,,0.00,Weather View 32 v70,2013-05-20 19:03:00,
2013-05-20 15:31:00,58.0,28.2,29.88,ESE,112,1.0,8.0,32,0.00,,,0.00,Weather View 32 v70,2013-05-20 19:31:00,
2013-05-20 16:00:00,58.0,27.5,29.89,ESE,112,1.0,7.0,31,0.00,,,0.00,Weather View 32 v70,2013-05-20 20:00:00,
2013-05-20 16:01:00,58.0,27.5,29.89,ESE,112,1.0,7.0,31,0.00,,,0.00,Weather View 32 v70,2013-05-20 20:01:00,
2013-05-20 16:31:00,59.0,30.6,29.88,ESE,112,3.0,7.0,34,0.00,,,0.00,Weather View 32 v70,2013-05-20 20:31:00,
2013-05-20 17:00:00,59.0,33.4,29.88,East,90,3.0,7.0,38,0.00,,,0.00,Weather View 32 v70,2013-05-20 21:00:00,
2013-05-20 17:01:00,59.0,33.4,29.88,East,90,3.0,7.0,38,0.00,,,0.00,Weather View 32 v70,2013-05-20 21:01:00,
2013-05-20 17:31:00,60.0,38.5,29.88,SE,135,0.0,8.0,45,0.00,,,0.00,Weather View 32 v70,2013-05-20 21:31:00,
2013-05-20 18:00:00,60.0,40.7,29.88,ESE,112,5.0,8.0,49,0.00,,,0.00,Weather View 32 v70,2013-05-20 22:00:00,
2013-05-20 18:01:00,60.0,40.7,29.88,ESE,112,5.0,8.0,49,0.00,,,0.00,Weather View 32 v70,2013-05-20 22:01:00,
2013-05-20 18:34:00,62.0,44.1,29.88,ESE,112,6.0,7.0,52,0.00,,,0.00,Weather View 32 v70,2013-05-20 22:34:00,
2013-05-20 19:01:00,60.0,35.6,29.89,East,90,1.0,7.0,40,0.00,,,0.00,Weather View 32 v70,2013-05-20 23:01:00,
2013-05-20 19:32:00,56.0,20.6,29.92,ESE,112,6.0,8.0,25,0.00,,,0.00,Weather View 32 v70,2013-05-20 23:32:00,
2013-05-20 20:01:00,55.0,3.2,29.92,ENE,67,5.0,8.0,12,0.00,,,0.00,Weather View 32 v70,2013-05-21 00:01:00,
2013-05-20 20:31:00,55.0,-32.1,29.93,NE,45,4.0,9.0,2,0.00,,,0.00,Weather View 32 v70,2013-05-21 00:31:00,
2013-05-20 21:01:00,55.0,-44.1,29.94,ENE,67,0.0,9.0,1,0.00,,,0.00,Weather View 32 v70,2013-05-21 01:01:00,
2013-05-20 21:34:00,54.0,-44.7,29.94,ESE,112,1.0,7.0,1,0.00,,,0.00,Weather View 32 v70,2013-05-21 01:34:00,
2013-05-20 22:01:00,54.0,-44.7,29.94,ESE,112,1.0,7.0,1,0.00,,,0.00,Weather View 32 v70,2013-05-21 02:01:00,
2013-05-20 22:31:00,54.0,-44.7,29.95,East,90,2.0,7.0,1,0.00,,,0.00,Weather View 32 v70,2013-05-21 02:31:00,
2013-05-20 23:01:00,53.0,-45.3,29.96,ENE,67,4.0,9.0,1,0.00,,,0.00,Weather View 32 v70,2013-05-21 03:01:00,
2013-05-20 23:31:00,53.0,-45.3,29.96,NE,45,1.0,9.0,1,0.00,,,0.00,Weather View 32 v70,2013-05-21 03:31:00,
2013-05-20 23:37:00,53.0,-45.3,29.96,NE,45,1.0,9.0,1,0.00,,,0.00,Weather View 32 v70,2013-05-21 03:37:00,